Impacts TAF Board
For situational awareness. Not to be used for flight planning purposes.
IDs:

KBFM - Mobile/Downtown Arpt, AL, US

Issued at 2336 UTC 22 Oct 2018
Updated at 0338 UTC 23 Oct 2018
Potential Impact None Slight Moderate High
Time<<23/16Z 23/17Z 23/18Z 23/19Z 23/20Z 23/21Z 23/22Z 23/23Z 24/00Z 24/01Z 24/02Z 24/03Z 24/04Z>>
Type PRVL
  [TEMP]  
PRVL
  [TEMP]  
PRVL
  [TEMP]  
PRVL PRVL PRVL PRVL PRVL
VIS >6
  [4]  
>6
  [4]  
>6
  [4]  
>6 >6 >6 >6 >6
CIG 60
  [25]  
60
  [25]  
60
  [25]  
60 60 60 60 60
Cover BKN
  [BKN]  
BKN
  [BKN]  
BKN
  [BKN]  
BKN BKN BKN BKN BKN
FltCat VFR
  [MVFR]  
VFR
  [MVFR]  
VFR
  [MVFR]  
VFR VFR VFR VFR VFR
WX VCSH
  [SHRA]  
VCSH
  [SHRA]  
VCSH
  [SHRA]  
VCSH VCSH VCSH VCSH VCSH
WDir 40
[40]
40
[40]
40
[40]
40 40 40 40 40
WSpd 8
  [8]  
8
  [8]  
8
  [8]  
8 8 8 8 8
WGst --
  [--]  
--
  [--]  
--
  [--]  
-- -- -- -- --
Raw TAF
KBFM 222336Z 2300/2324 09008KT P6SM BKN035 OVC040
  FM230600 05006KT P6SM VCSH OVC050
  FM231200 04008KT P6SM VCSH SCT025 BKN060
  TEMPO 2315/2319 4SM SHRA BKN025


METAR Board
Radar Display
Forecast Discussion
For situational awareness. Not to be used for flight planning purposes.